sensor_id;sensor_type;location;lat;lon;timestamp;P1;P2;P0
61873;PMS5003;49692;55.052;73.310;2022-09-03T00:01:05;10.00;6.00;4.50
61873;PMS5003;49692;55.052;73.310;2022-09-03T00:03:48;5.25;4.00;3.25
61873;PMS5003;49692;55.052;73.310;2022-09-03T00:09:19;9.00;7.00;6.50
61873;PMS5003;49692;55.052;73.310;2022-09-03T00:11:56;8.75;6.00;4.00
61873;PMS5003;49692;55.052;73.310;2022-09-03T00:17:49;8.50;6.75;3.50
61873;PMS5003;49692;55.052;73.310;2022-09-03T00:23:03;10.00;9.50;6.25
61873;PMS5003;49692;55.052;73.310;2022-09-03T00:25:43;9.75;9.00;6.75
61873;PMS5003;49692;55.052;73.310;2022-09-03T00:31:59;6.75;5.25;3.25
61873;PMS5003;49692;55.052;73.310;2022-09-03T00:34:37;7.25;7.25;5.50
61873;PMS5003;49692;55.052;73.310;2022-09-03T00:37:12;11.25;8.00;4.00
61873;PMS5003;49692;55.052;73.310;2022-09-03T00:39:39;8.75;4.00;1.00
61873;PMS5003;49692;55.052;73.310;2022-09-03T00:59:28;13.25;10.25;7.50
61873;PMS5003;49692;55.052;73.310;2022-09-03T01:02:17;9.00;7.00;4.00
61873;PMS5003;49692;55.052;73.310;2022-09-03T01:18:22;15.00;9.50;6.75
61873;PMS5003;49692;55.052;73.310;2022-09-03T01:29:42;9.75;7.00;6.00
61873;PMS5003;49692;55.052;73.310;2022-09-03T01:32:28;8.75;6.75;5.00
61873;PMS5003;49692;55.052;73.310;2022-09-03T01:35:30;14.50;9.75;7.25
61873;PMS5003;49692;55.052;73.310;2022-09-03T01:44:05;9.50;7.25;4.50
61873;PMS5003;49692;55.052;73.310;2022-09-03T01:46:42;15.40;12.20;7.00
61873;PMS5003;49692;55.052;73.310;2022-09-03T01:49:28;20.00;12.75;9.75
61873;PMS5003;49692;55.052;73.310;2022-09-03T01:52:18;9.75;6.75;3.75
61873;PMS5003;49692;55.052;73.310;2022-09-03T01:55:05;14.00;8.00;6.00
61873;PMS5003;49692;55.052;73.310;2022-09-03T02:00:16;15.25;10.75;7.00
61873;PMS5003;49692;55.052;73.310;2022-09-03T02:02:51;14.25;11.50;7.00
61873;PMS5003;49692;55.052;73.310;2022-09-03T02:08:00;11.50;11.00;9.00
61873;PMS5003;49692;55.052;73.310;2022-09-03T02:13:35;18.25;11.50;6.75
61873;PMS5003;49692;55.052;73.310;2022-09-03T02:16:11;10.00;10.00;8.50
61873;PMS5003;49692;55.052;73.310;2022-09-03T02:18:51;18.25;14.00;9.00
61873;PMS5003;49692;55.052;73.310;2022-09-03T02:21:22;15.50;11.00;7.50
61873;PMS5003;49692;55.052;73.310;2022-09-03T02:23:51;12.50;10.50;7.00
61873;PMS5003;49692;55.052;73.310;2022-09-03T02:26:21;9.00;4.00;4.00
61873;PMS5003;49692;55.052;73.310;2022-09-03T02:28:50;11.50;9.75;7.00
61873;PMS5003;49692;55.052;73.310;2022-09-03T02:31:18;5.00;4.00;3.25
61873;PMS5003;49692;55.052;73.310;2022-09-03T02:33:45;9.50;7.00;4.00
61873;PMS5003;49692;55.052;73.310;2022-09-03T02:36:14;13.25;12.50;9.25
61873;PMS5003;49692;55.052;73.310;2022-09-03T02:38:45;13.25;11.00;7.50
61873;PMS5003;49692;55.052;73.310;2022-09-03T02:41:13;18.75;13.00;10.50
61873;PMS5003;49692;55.052;73.310;2022-09-03T02:46:40;15.00;11.00;8.50
61873;PMS5003;49692;55.052;73.310;2022-09-03T02:49:11;13.50;11.50;8.50
61873;PMS5003;49692;55.052;73.310;2022-09-03T02:51:42;13.20;10.80;6.80
61873;PMS5003;49692;55.052;73.310;2022-09-03T02:54:14;11.00;10.40;7.80
61873;PMS5003;49692;55.052;73.310;2022-09-03T02:56:40;18.50;16.75;12.00
61873;PMS5003;49692;55.052;73.310;2022-09-03T02:59:13;17.50;12.00;8.00
61873;PMS5003;49692;55.052;73.310;2022-09-03T03:01:55;13.80;12.20;10.00
61873;PMS5003;49692;55.052;73.310;2022-09-03T03:04:22;13.00;13.00;9.50
61873;PMS5003;49692;55.052;73.310;2022-09-03T03:07:00;12.80;11.20;9.40
61873;PMS5003;49692;55.052;73.310;2022-09-03T03:09:26;15.00;13.25;9.25
61873;PMS5003;49692;55.052;73.310;2022-09-03T03:11:54;13.00;13.00;10.25
61873;PMS5003;49692;55.052;73.310;2022-09-03T03:14:32;17.60;13.00;9.80
61873;PMS5003;49692;55.052;73.310;2022-09-03T03:17:03;16.50;14.00;9.75
61873;PMS5003;49692;55.052;73.310;2022-09-03T03:19:36;16.20;12.40;9.40
61873;PMS5003;49692;55.052;73.310;2022-09-03T03:22:03;17.80;14.60;9.40
61873;PMS5003;49692;55.052;73.310;2022-09-03T03:24:43;13.40;13.40;9.20
61873;PMS5003;49692;55.052;73.310;2022-09-03T03:27:11;16.00;14.50;10.00
61873;PMS5003;49692;55.052;73.310;2022-09-03T03:29:40;16.40;15.00;9.40
61873;PMS5003;49692;55.052;73.310;2022-09-03T03:32:07;15.40;10.40;7.40
61873;PMS5003;49692;55.052;73.310;2022-09-03T03:34:34;16.25;13.25;7.00
61873;PMS5003;49692;55.052;73.310;2022-09-03T03:37:06;19.40;15.00;9.40
61873;PMS5003;49692;55.052;73.310;2022-09-03T03:39:44;16.00;12.75;9.00
61873;PMS5003;49692;55.052;73.310;2022-09-03T03:42:10;19.00;12.25;9.00
61873;PMS5003;49692;55.052;73.310;2022-09-03T03:44:46;12.20;10.00;7.00
61873;PMS5003;49692;55.052;73.310;2022-09-03T03:47:23;18.60;15.40;9.60
61873;PMS5003;49692;55.052;73.310;2022-09-03T03:49:58;21.40;13.80;10.00
61873;PMS5003;49692;55.052;73.310;2022-09-03T03:52:35;16.75;13.75;9.75
61873;PMS5003;49692;55.052;73.310;2022-09-03T03:55:03;15.80;12.00;9.40
61873;PMS5003;49692;55.052;73.310;2022-09-03T03:57:36;14.60;12.00;9.80
61873;PMS5003;49692;55.052;73.310;2022-09-03T04:00:07;12.20;12.00;7.40
61873;PMS5003;49692;55.052;73.310;2022-09-03T04:02:47;13.20;13.20;9.80
61873;PMS5003;49692;55.052;73.310;2022-09-03T04:05:21;20.00;12.60;9.60
61873;PMS5003;49692;55.052;73.310;2022-09-03T04:07:48;14.80;12.60;9.60
61873;PMS5003;49692;55.052;73.310;2022-09-03T04:10:23;16.00;11.80;8.20
61873;PMS5003;49692;55.052;73.310;2022-09-03T04:12:53;20.20;13.60;9.40
61873;PMS5003;49692;55.052;73.310;2022-09-03T04:15:20;13.80;11.80;8.60
61873;PMS5003;49692;55.052;73.310;2022-09-03T04:17:54;15.25;14.50;11.00
61873;PMS5003;49692;55.052;73.310;2022-09-03T04:20:27;17.00;13.50;10.50
61873;PMS5003;49692;55.052;73.310;2022-09-03T04:22:54;24.25;15.25;11.00
61873;PMS5003;49692;55.052;73.310;2022-09-03T04:25:31;14.40;14.20;10.00
61873;PMS5003;49692;55.052;73.310;2022-09-03T04:27:58;21.75;16.00;11.00
61873;PMS5003;49692;55.052;73.310;2022-09-03T04:30:25;15.20;12.60;9.40
61873;PMS5003;49692;55.052;73.310;2022-09-03T04:32:52;16.00;14.50;9.25
61873;PMS5003;49692;55.052;73.310;2022-09-03T04:35:29;23.20;13.00;9.60
61873;PMS5003;49692;55.052;73.310;2022-09-03T04:41:06;17.80;13.00;8.00
61873;PMS5003;49692;55.052;73.310;2022-09-03T04:43:35;19.60;13.20;9.60
61873;PMS5003;49692;55.052;73.310;2022-09-03T04:46:03;20.00;16.00;11.00
61873;PMS5003;49692;55.052;73.310;2022-09-03T04:48:49;15.80;13.80;11.20
61873;PMS5003;49692;55.052;73.310;2022-09-03T04:51:31;17.80;14.00;10.00
61873;PMS5003;49692;55.052;73.310;2022-09-03T04:54:04;16.60;12.20;11.00
61873;PMS5003;49692;55.052;73.310;2022-09-03T04:56:50;22.40;13.80;8.00
61873;PMS5003;49692;55.052;73.310;2022-09-03T04:59:28;13.40;11.80;8.00
61873;PMS5003;49692;55.052;73.310;2022-09-03T05:01:57;10.20;9.60;7.40
61873;PMS5003;49692;55.052;73.310;2022-09-03T05:04:27;94.50;72.75;45.75
61873;PMS5003;49692;55.052;73.310;2022-09-03T05:06:55;39.25;33.00;22.00
61873;PMS5003;49692;55.052;73.310;2022-09-03T05:09:22;37.00;30.25;23.50
61873;PMS5003;49692;55.052;73.310;2022-09-03T05:11:56;17.00;14.40;10.40
61873;PMS5003;49692;55.052;73.310;2022-09-03T05:14:27;16.40;14.00;10.40
61873;PMS5003;49692;55.052;73.310;2022-09-03T05:16:57;20.20;14.60;11.00
61873;PMS5003;49692;55.052;73.310;2022-09-03T05:19:26;13.20;11.40;7.80
61873;PMS5003;49692;55.052;73.310;2022-09-03T05:21:54;21.40;15.20;12.60
61873;PMS5003;49692;55.052;73.310;2022-09-03T05:24:26;23.20;20.80;12.80
61873;PMS5003;49692;55.052;73.310;2022-09-03T05:26:55;21.40;17.20;11.00
61873;PMS5003;49692;55.052;73.310;2022-09-03T05:29:29;17.40;14.60;14.00
61873;PMS5003;49692;55.052;73.310;2022-09-03T05:31:56;20.40;15.80;10.40
61873;PMS5003;49692;55.052;73.310;2022-09-03T05:34:23;17.80;15.00;11.00
61873;PMS5003;49692;55.052;73.310;2022-09-03T05:36:51;25.40;20.60;14.00
61873;PMS5003;49692;55.052;73.310;2022-09-03T05:39:19;31.50;19.50;14.50
61873;PMS5003;49692;55.052;73.310;2022-09-03T05:41:46;16.40;15.60;11.00
61873;PMS5003;49692;55.052;73.310;2022-09-03T05:44:15;19.40;15.80;11.00
61873;PMS5003;49692;55.052;73.310;2022-09-03T05:46:41;25.80;14.60;11.80
61873;PMS5003;49692;55.052;73.310;2022-09-03T05:49:08;15.40;15.40;11.00
61873;PMS5003;49692;55.052;73.310;2022-09-03T05:51:40;21.20;17.00;11.80
61873;PMS5003;49692;55.052;73.310;2022-09-03T05:54:17;23.80;17.80;14.20
61873;PMS5003;49692;55.052;73.310;2022-09-03T05:56:59;15.40;15.40;12.00
61873;PMS5003;49692;55.052;73.310;2022-09-03T05:59:50;19.00;16.00;11.00
61873;PMS5003;49692;55.052;73.310;2022-09-03T06:02:21;24.40;21.00;15.40
61873;PMS5003;49692;55.052;73.310;2022-09-03T06:04:47;24.40;20.40;15.00
61873;PMS5003;49692;55.052;73.310;2022-09-03T06:07:14;24.20;18.60;13.20
61873;PMS5003;49692;55.052;73.310;2022-09-03T06:09:42;25.40;17.60;11.40
61873;PMS5003;49692;55.052;73.310;2022-09-03T06:12:13;25.20;20.20;12.00
61873;PMS5003;49692;55.052;73.310;2022-09-03T06:14:40;25.00;19.00;15.20
61873;PMS5003;49692;55.052;73.310;2022-09-03T06:17:09;20.80;14.20;9.40
61873;PMS5003;49692;55.052;73.310;2022-09-03T06:19:53;28.60;21.80;12.80
61873;PMS5003;49692;55.052;73.310;2022-09-03T06:22:20;26.50;23.50;16.50
61873;PMS5003;49692;55.052;73.310;2022-09-03T06:24:49;22.80;21.60;16.00
61873;PMS5003;49692;55.052;73.310;2022-09-03T06:27:17;24.00;22.50;15.25
61873;PMS5003;49692;55.052;73.310;2022-09-03T06:29:46;34.60;25.20;18.80
61873;PMS5003;49692;55.052;73.310;2022-09-03T06:32:13;25.50;20.75;16.00
61873;PMS5003;49692;55.052;73.310;2022-09-03T06:34:41;24.20;21.80;16.20
61873;PMS5003;49692;55.052;73.310;2022-09-03T06:37:08;18.00;16.60;13.20
61873;PMS5003;49692;55.052;73.310;2022-09-03T06:39:35;22.60;21.60;13.20
61873;PMS5003;49692;55.052;73.310;2022-09-03T06:42:02;22.20;21.80;17.20
61873;PMS5003;49692;55.052;73.310;2022-09-03T06:44:35;21.20;18.20;11.60
61873;PMS5003;49692;55.052;73.310;2022-09-03T06:47:01;34.00;24.00;16.75
61873;PMS5003;49692;55.052;73.310;2022-09-03T06:49:28;25.80;21.80;15.00
61873;PMS5003;49692;55.052;73.310;2022-09-03T06:52:01;36.25;27.50;20.50
61873;PMS5003;49692;55.052;73.310;2022-09-03T06:54:33;16.40;10.40;9.00
61873;PMS5003;49692;55.052;73.310;2022-09-03T06:57:00;24.20;22.40;15.00
61873;PMS5003;49692;55.052;73.310;2022-09-03T06:59:26;23.00;22.00;16.25
61873;PMS5003;49692;55.052;73.310;2022-09-03T07:02:03;25.60;21.20;15.00
61873;PMS5003;49692;55.052;73.310;2022-09-03T07:04:31;11.75;11.75;11.00
61873;PMS5003;49692;55.052;73.310;2022-09-03T07:06:59;30.40;25.40;20.00
61873;PMS5003;49692;55.052;73.310;2022-09-03T07:09:27;25.60;22.80;15.80
61873;PMS5003;49692;55.052;73.310;2022-09-03T07:11:58;34.00;19.20;15.20
61873;PMS5003;49692;55.052;73.310;2022-09-03T07:14:26;26.40;22.00;15.00
61873;PMS5003;49692;55.052;73.310;2022-09-03T07:16:57;25.00;20.20;15.00
61873;PMS5003;49692;55.052;73.310;2022-09-03T07:19:31;35.75;23.00;17.25
61873;PMS5003;49692;55.052;73.310;2022-09-03T07:21:58;25.00;19.60;12.80
61873;PMS5003;49692;55.052;73.310;2022-09-03T07:24:25;23.00;16.40;12.60
61873;PMS5003;49692;55.052;73.310;2022-09-03T07:26:52;25.40;20.80;15.00
61873;PMS5003;49692;55.052;73.310;2022-09-03T07:29:20;30.25;17.50;12.50
61873;PMS5003;49692;55.052;73.310;2022-09-03T07:31:49;22.20;17.00;12.20
61873;PMS5003;49692;55.052;73.310;2022-09-03T07:34:28;30.00;25.50;18.00
61873;PMS5003;49692;55.052;73.310;2022-09-03T07:36:56;31.40;24.00;16.00
61873;PMS5003;49692;55.052;73.310;2022-09-03T07:39:24;33.00;23.00;13.00
61873;PMS5003;49692;55.052;73.310;2022-09-03T07:41:51;33.80;26.20;17.60
61873;PMS5003;49692;55.052;73.310;2022-09-03T07:44:22;28.60;19.80;13.40
61873;PMS5003;49692;55.052;73.310;2022-09-03T07:46:50;22.60;19.60;12.20
61873;PMS5003;49692;55.052;73.310;2022-09-03T07:49:17;15.60;13.40;9.00
61873;PMS5003;49692;55.052;73.310;2022-09-03T07:51:45;17.25;15.50;13.00
61873;PMS5003;49692;55.052;73.310;2022-09-03T07:54:25;13.20;13.20;10.80
61873;PMS5003;49692;55.052;73.310;2022-09-03T07:56:52;23.40;20.60;13.80
61873;PMS5003;49692;55.052;73.310;2022-09-03T07:59:24;14.00;12.80;10.00
61873;PMS5003;49692;55.052;73.310;2022-09-03T08:01:52;28.80;23.80;19.80
61873;PMS5003;49692;55.052;73.310;2022-09-03T08:04:22;23.25;22.75;16.75
61873;PMS5003;49692;55.052;73.310;2022-09-03T08:06:48;37.75;29.25;19.00
61873;PMS5003;49692;55.052;73.310;2022-09-03T08:09:22;32.00;20.50;12.50
61873;PMS5003;49692;55.052;73.310;2022-09-03T08:11:59;31.75;25.75;17.25
61873;PMS5003;49692;55.052;73.310;2022-09-03T08:14:26;26.60;20.60;15.20
61873;PMS5003;49692;55.052;73.310;2022-09-03T08:16:55;29.80;18.60;14.20
61873;PMS5003;49692;55.052;73.310;2022-09-03T08:19:25;16.50;13.00;10.25
61873;PMS5003;49692;55.052;73.310;2022-09-03T08:21:52;19.40;15.20;9.60
61873;PMS5003;49692;55.052;73.310;2022-09-03T08:24:20;17.60;10.00;8.80
61873;PMS5003;49692;55.052;73.310;2022-09-03T08:26:49;26.80;17.80;14.40
61873;PMS5003;49692;55.052;73.310;2022-09-03T08:29:17;26.00;21.00;14.50
61873;PMS5003;49692;55.052;73.310;2022-09-03T08:31:44;24.75;18.75;15.25
61873;PMS5003;49692;55.052;73.310;2022-09-03T08:34:11;10.25;9.75;8.25
61873;PMS5003;49692;55.052;73.310;2022-09-03T08:36:40;21.80;20.80;17.00
61873;PMS5003;49692;55.052;73.310;2022-09-03T08:39:08;17.20;16.80;13.20
61873;PMS5003;49692;55.052;73.310;2022-09-03T08:44:14;16.00;12.60;9.80
61873;PMS5003;49692;55.052;73.310;2022-09-03T08:50:00;20.80;16.00;11.40
61873;PMS5003;49692;55.052;73.310;2022-09-03T08:52:54;14.40;13.00;12.00
61873;PMS5003;49692;55.052;73.310;2022-09-03T08:58:20;14.80;12.40;9.00
61873;PMS5003;49692;55.052;73.310;2022-09-03T09:01:00;14.20;11.80;8.00
61873;PMS5003;49692;55.052;73.310;2022-09-03T09:18:03;14.20;13.00;11.00
61873;PMS5003;49692;55.052;73.310;2022-09-03T09:20:53;17.80;10.00;9.00
61873;PMS5003;49692;55.052;73.310;2022-09-03T09:23:45;16.60;15.00;10.60
61873;PMS5003;49692;55.052;73.310;2022-09-03T09:26:15;16.20;11.80;9.20
61873;PMS5003;49692;55.052;73.310;2022-09-03T09:28:45;15.80;10.20;8.80
61873;PMS5003;49692;55.052;73.310;2022-09-03T09:31:14;14.00;13.80;8.60
61873;PMS5003;49692;55.052;73.310;2022-09-03T09:33:43;22.60;15.20;10.20
61873;PMS5003;49692;55.052;73.310;2022-09-03T09:36:15;21.20;15.00;8.80
61873;PMS5003;49692;55.052;73.310;2022-09-03T09:38:44;17.20;15.00;10.00
61873;PMS5003;49692;55.052;73.310;2022-09-03T09:41:17;17.80;12.20;9.00
61873;PMS5003;49692;55.052;73.310;2022-09-03T09:44:04;11.40;10.40;8.20
61873;PMS5003;49692;55.052;73.310;2022-09-03T09:46:35;17.60;15.00;12.00
61873;PMS5003;49692;55.052;73.310;2022-09-03T09:49:49;18.00;11.80;8.80
61873;PMS5003;49692;55.052;73.310;2022-09-03T09:52:07;20.20;16.00;11.00
61873;PMS5003;49692;55.052;73.310;2022-09-03T09:54:47;23.00;15.00;10.40
61873;PMS5003;49692;55.052;73.310;2022-09-03T09:57:15;18.80;16.80;13.00
61873;PMS5003;49692;55.052;73.310;2022-09-03T10:00:04;17.00;14.40;10.80
61873;PMS5003;49692;55.052;73.310;2022-09-03T10:02:47;20.00;15.60;10.20
61873;PMS5003;49692;55.052;73.310;2022-09-03T10:05:23;16.80;13.20;11.00
61873;PMS5003;49692;55.052;73.310;2022-09-03T10:08:18;21.60;15.00;11.20
61873;PMS5003;49692;55.052;73.310;2022-09-03T10:10:48;31.50;23.25;18.00
61873;PMS5003;49692;55.052;73.310;2022-09-03T10:13:34;23.20;20.20;12.80
61873;PMS5003;49692;55.052;73.310;2022-09-03T10:16:21;19.75;17.00;13.50
61873;PMS5003;49692;55.052;73.310;2022-09-03T10:19:17;16.20;8.80;5.20
61873;PMS5003;49692;55.052;73.310;2022-09-03T10:21:57;22.60;17.00;9.00
61873;PMS5003;49692;55.052;73.310;2022-09-03T10:24:46;21.20;12.80;9.40
61873;PMS5003;49692;55.052;73.310;2022-09-03T10:27:15;14.20;13.20;9.80
61873;PMS5003;49692;55.052;73.310;2022-09-03T10:29:45;15.80;15.80;10.20
61873;PMS5003;49692;55.052;73.310;2022-09-03T10:38:32;11.50;9.50;9.00
61873;PMS5003;49692;55.052;73.310;2022-09-03T10:41:05;16.00;16.00;12.20
61873;PMS5003;49692;55.052;73.310;2022-09-03T10:47:06;19.00;18.40;13.40
61873;PMS5003;49692;55.052;73.310;2022-09-03T10:50:09;14.60;14.60;11.60
61873;PMS5003;49692;55.052;73.310;2022-09-03T10:55:46;27.00;22.75;16.50
61873;PMS5003;49692;55.052;73.310;2022-09-03T11:01:26;29.40;26.20;19.00
61873;PMS5003;49692;55.052;73.310;2022-09-03T11:07:13;32.25;22.50;16.50
61873;PMS5003;49692;55.052;73.310;2022-09-03T11:16:02;37.00;28.75;20.00
61873;PMS5003;49692;55.052;73.310;2022-09-03T11:19:10;43.00;31.50;22.50
61873;PMS5003;49692;55.052;73.310;2022-09-03T11:21:44;38.25;29.00;19.75
61873;PMS5003;49692;55.052;73.310;2022-09-03T11:24:15;27.00;25.50;19.25
61873;PMS5003;49692;55.052;73.310;2022-09-03T11:26:49;24.25;24.25;15.75
61873;PMS5003;49692;55.052;73.310;2022-09-03T11:29:31;27.00;23.50;16.50
61873;PMS5003;49692;55.052;73.310;2022-09-03T11:32:27;33.75;28.75;18.50
61873;PMS5003;49692;55.052;73.310;2022-09-03T11:37:59;35.50;28.75;20.00
61873;PMS5003;49692;55.052;73.310;2022-09-03T11:43:40;25.25;23.25;18.50
61873;PMS5003;49692;55.052;73.310;2022-09-03T11:46:13;33.75;30.00;20.25
61873;PMS5003;49692;55.052;73.310;2022-09-03T11:48:55;31.00;25.75;19.00
61873;PMS5003;49692;55.052;73.310;2022-09-03T11:53:56;24.40;21.20;14.20
61873;PMS5003;49692;55.052;73.310;2022-09-03T11:56:33;28.20;24.60;15.60
61873;PMS5003;49692;55.052;73.310;2022-09-03T12:02:01;32.25;26.00;17.25
61873;PMS5003;49692;55.052;73.310;2022-09-03T12:05:06;29.50;25.25;17.25
61873;PMS5003;49692;55.052;73.310;2022-09-03T12:08:20;24.75;18.75;13.25
61873;PMS5003;49692;55.052;73.310;2022-09-03T12:19:55;29.50;26.00;17.25
61873;PMS5003;49692;55.052;73.310;2022-09-03T12:22:28;33.75;28.75;20.00
61873;PMS5003;49692;55.052;73.310;2022-09-03T12:25:09;35.50;31.75;23.00
61873;PMS5003;49692;55.052;73.310;2022-09-03T12:27:39;20.80;17.40;10.40
61873;PMS5003;49692;55.052;73.310;2022-09-03T12:30:16;26.25;23.50;18.25
61873;PMS5003;49692;55.052;73.310;2022-09-03T12:32:50;35.75;30.00;20.25
61873;PMS5003;49692;55.052;73.310;2022-09-03T12:35:21;40.50;33.00;23.25
61873;PMS5003;49692;55.052;73.310;2022-09-03T12:37:52;32.50;26.25;21.50
61873;PMS5003;49692;55.052;73.310;2022-09-03T12:40:22;32.50;25.50;16.25
61873;PMS5003;49692;55.052;73.310;2022-09-03T12:42:51;36.75;30.00;21.25
61873;PMS5003;49692;55.052;73.310;2022-09-03T12:45:25;44.00;33.25;23.00
61873;PMS5003;49692;55.052;73.310;2022-09-03T12:47:52;29.50;26.75;17.75
61873;PMS5003;49692;55.052;73.310;2022-09-03T12:50:25;36.50;32.25;23.25
61873;PMS5003;49692;55.052;73.310;2022-09-03T12:52:57;31.75;27.00;19.00
61873;PMS5003;49692;55.052;73.310;2022-09-03T12:58:07;34.75;30.75;22.00
61873;PMS5003;49692;55.052;73.310;2022-09-03T13:03:52;32.00;26.50;19.00
61873;PMS5003;49692;55.052;73.310;2022-09-03T13:06:20;33.75;31.75;23.75
61873;PMS5003;49692;55.052;73.310;2022-09-03T13:09:03;39.50;34.50;23.00
61873;PMS5003;49692;55.052;73.310;2022-09-03T13:11:34;40.25;29.50;21.00
61873;PMS5003;49692;55.052;73.310;2022-09-03T13:14:07;27.25;23.75;18.50
61873;PMS5003;49692;55.052;73.310;2022-09-03T13:24:31;39.25;34.00;22.75
61873;PMS5003;49692;55.052;73.310;2022-09-03T13:27:31;44.00;36.50;25.00
61873;PMS5003;49692;55.052;73.310;2022-09-03T13:30:19;57.50;42.00;25.75
61873;PMS5003;49692;55.052;73.310;2022-09-03T13:32:53;58.00;43.25;28.25
61873;PMS5003;49692;55.052;73.310;2022-09-03T13:35:45;49.75;42.50;28.75
61873;PMS5003;49692;55.052;73.310;2022-09-03T13:38:38;63.75;45.25;29.25
61873;PMS5003;49692;55.052;73.310;2022-09-03T13:44:06;38.75;33.75;25.00
61873;PMS5003;49692;55.052;73.310;2022-09-03T13:46:51;56.00;46.75;29.75
61873;PMS5003;49692;55.052;73.310;2022-09-03T13:53:05;46.25;42.50;28.00
61873;PMS5003;49692;55.052;73.310;2022-09-03T13:55:46;50.00;41.50;30.00
61873;PMS5003;49692;55.052;73.310;2022-09-03T13:58:33;48.75;35.75;24.25
61873;PMS5003;49692;55.052;73.310;2022-09-03T14:01:05;44.25;39.00;24.25
61873;PMS5003;49692;55.052;73.310;2022-09-03T14:12:43;42.25;30.25;21.50
61873;PMS5003;49692;55.052;73.310;2022-09-03T14:15:30;37.75;27.25;20.75
61873;PMS5003;49692;55.052;73.310;2022-09-03T14:21:26;24.75;21.00;17.75
61873;PMS5003;49692;55.052;73.310;2022-09-03T14:24:14;21.75;18.00;13.50
61873;PMS5003;49692;55.052;73.310;2022-09-03T14:27:28;25.00;20.00;14.00
61873;PMS5003;49692;55.052;73.310;2022-09-03T14:30:03;22.00;19.50;14.25
61873;PMS5003;49692;55.052;73.310;2022-09-03T14:32:55;23.50;20.50;14.50
61873;PMS5003;49692;55.052;73.310;2022-09-03T14:38:37;11.60;11.60;8.40
61873;PMS5003;49692;55.052;73.310;2022-09-03T14:44:18;42.50;35.00;24.25
61873;PMS5003;49692;55.052;73.310;2022-09-03T14:47:06;25.00;20.00;13.50
61873;PMS5003;49692;55.052;73.310;2022-09-03T14:55:56;23.00;19.75;17.00
61873;PMS5003;49692;55.052;73.310;2022-09-03T15:05:11;19.50;17.25;13.75
61873;PMS5003;49692;55.052;73.310;2022-09-03T15:07:50;19.75;18.00;12.00
61873;PMS5003;49692;55.052;73.310;2022-09-03T15:14:13;19.75;17.75;15.00
61873;PMS5003;49692;55.052;73.310;2022-09-03T15:16:59;31.25;23.50;17.00
61873;PMS5003;49692;55.052;73.310;2022-09-03T15:19:57;23.00;21.00;17.25
61873;PMS5003;49692;55.052;73.310;2022-09-03T15:25:48;22.75;19.50;14.50
61873;PMS5003;49692;55.052;73.310;2022-09-03T15:31:31;27.00;20.75;16.00
61873;PMS5003;49692;55.052;73.310;2022-09-03T15:37:26;30.25;19.25;13.50
61873;PMS5003;49692;55.052;73.310;2022-09-03T15:40:40;17.60;15.00;14.20
61873;PMS5003;49692;55.052;73.310;2022-09-03T15:43:31;20.20;17.80;14.00
61873;PMS5003;49692;55.052;73.310;2022-09-03T15:46:01;28.50;21.50;14.50
61873;PMS5003;49692;55.052;73.310;2022-09-03T15:51:33;26.50;14.50;11.25
61873;PMS5003;49692;55.052;73.310;2022-09-03T15:57:04;21.75;17.50;12.00
61873;PMS5003;49692;55.052;73.310;2022-09-03T15:59:53;33.00;22.00;14.25
61873;PMS5003;49692;55.052;73.310;2022-09-03T16:02:46;20.00;20.00;14.00
61873;PMS5003;49692;55.052;73.310;2022-09-03T16:10:57;21.50;15.50;11.75
61873;PMS5003;49692;55.052;73.310;2022-09-03T16:19:41;16.20;14.00;8.80
61873;PMS5003;49692;55.052;73.310;2022-09-03T16:22:20;25.75;21.50;15.00
61873;PMS5003;49692;55.052;73.310;2022-09-03T16:27:54;19.60;18.20;14.60
61873;PMS5003;49692;55.052;73.310;2022-09-03T16:30:36;21.20;16.80;11.80
61873;PMS5003;49692;55.052;73.310;2022-09-03T16:33:19;20.80;18.00;11.20
61873;PMS5003;49692;55.052;73.310;2022-09-03T16:38:45;19.60;15.80;14.00
61873;PMS5003;49692;55.052;73.310;2022-09-03T16:50:24;15.50;15.00;10.50
61873;PMS5003;49692;55.052;73.310;2022-09-03T16:55:59;22.00;18.50;14.00
61873;PMS5003;49692;55.052;73.310;2022-09-03T17:01:55;101.75;78.50;47.00
61873;PMS5003;49692;55.052;73.310;2022-09-03T17:10:30;21.75;18.00;14.00
61873;PMS5003;49692;55.052;73.310;2022-09-03T17:16:02;19.75;17.00;13.00
61873;PMS5003;49692;55.052;73.310;2022-09-03T17:18:58;27.00;26.50;20.25
61873;PMS5003;49692;55.052;73.310;2022-09-03T17:25:53;19.75;19.25;15.00
61873;PMS5003;49692;55.052;73.310;2022-09-03T17:31:03;21.40;17.20;13.60
61873;PMS5003;49692;55.052;73.310;2022-09-03T17:33:55;27.60;14.20;9.00
61873;PMS5003;49692;55.052;73.310;2022-09-03T17:37:03;22.40;16.00;12.00
61873;PMS5003;49692;55.052;73.310;2022-09-03T17:39:52;16.20;14.40;11.80
61873;PMS5003;49692;55.052;73.310;2022-09-03T17:42:59;19.00;13.60;8.60
61873;PMS5003;49692;55.052;73.310;2022-09-03T17:45:44;26.40;18.00;14.00
61873;PMS5003;49692;55.052;73.310;2022-09-03T17:48:51;21.20;14.80;10.40
61873;PMS5003;49692;55.052;73.310;2022-09-03T17:57:39;22.40;20.40;14.80
61873;PMS5003;49692;55.052;73.310;2022-09-03T17:59:46;22.60;18.60;12.00
61873;PMS5003;49692;55.052;73.310;2022-09-03T18:02:28;21.75;15.00;11.00
61873;PMS5003;49692;55.052;73.310;2022-09-03T18:16:25;25.00;19.75;15.50
61873;PMS5003;49692;55.052;73.310;2022-09-03T18:18:59;33.00;25.50;18.75
61873;PMS5003;49692;55.052;73.310;2022-09-03T18:22:09;23.75;23.75;18.50
61873;PMS5003;49692;55.052;73.310;2022-09-03T18:24:59;38.75;30.75;19.75
61873;PMS5003;49692;55.052;73.310;2022-09-03T18:27:56;69.75;50.00;34.50
61873;PMS5003;49692;55.052;73.310;2022-09-03T18:31:07;62.25;46.75;32.25
61873;PMS5003;49692;55.052;73.310;2022-09-03T18:34:03;77.00;57.00;36.75
61873;PMS5003;49692;55.052;73.310;2022-09-03T18:36:48;54.50;47.25;36.75
61873;PMS5003;49692;55.052;73.310;2022-09-03T18:39:44;80.25;57.00;37.50
61873;PMS5003;49692;55.052;73.310;2022-09-03T18:58:23;12.50;9.50;7.50
61873;PMS5003;49692;55.052;73.310;2022-09-03T19:01:20;20.25;15.50;12.50
61873;PMS5003;49692;55.052;73.310;2022-09-03T19:10:53;8.50;5.00;4.00
61873;PMS5003;49692;55.052;73.310;2022-09-03T19:14:07;11.00;7.50;5.50
61873;PMS5003;49692;55.052;73.310;2022-09-03T19:20:30;8.25;6.00;5.00
61873;PMS5003;49692;55.052;73.310;2022-09-03T19:23:26;1.75;0.00;0.00
61873;PMS5003;49692;55.052;73.310;2022-09-03T19:26:22;13.50;11.00;8.00
61873;PMS5003;49692;55.052;73.310;2022-09-03T19:29:38;3.75;3.00;1.50
61873;PMS5003;49692;55.052;73.310;2022-09-03T19:36:19;12.25;6.75;5.50
61873;PMS5003;49692;55.052;73.310;2022-09-03T19:39:19;6.50;1.50;0.00